Cecil, Georgia
Current Conditions -  °F | °C
As of 3:32 AM on Sunday 21 Dec 2014 (Local Time) from KVAD Reporting Station
Light Rain Light Rain  
Wind Chill: 54°   Ceiling: 300
Heat Index: 54°   Visibility: 5mi
Dew Point: 52°   Wind: 7mph
Humidity: 94%   Direction: 30°NNE
Pressure: 30.13"   Gusts: NA
Location:  31.05°N, 83.39°W
Report Text: KVAD 210832Z AUTO 03006KT 5SM R36/5000FT -RA BR OVC003 12/11 A3013 RMK AO2
Loading
Personal Weather Stations






























Interactive Weather Map New forecast layout! Learn more

10-Day Weather Forecast

Advertisements
Track Severe Weather on mobile